Time;durP1;ratioP1;P1;durP2;ratioP2;P2;SDS_P1;SDS_P2;PMS_P1;PMS_P2;Temp;Humidity;BMP_temperature;BMP_pressure;BME280_temperature;BME280_humidity;BME280_pressure;Samples;Min_cycle;Max_cycle;Signal;HPM_P1;HPM_P2
2024/04/17 00:02:29;;;;;;;2.83;1.60;;;;;;;4.97;100.00;99166.72;5026324;57;1136483;-78
2024/04/17 00:07:35;;;;;;;1.87;1.40;;;;;;;4.95;100.00;99169.45;5045984;57;1136609;-79
2024/04/17 00:12:40;;;;;;;2.73;1.13;;;;;;;5.00;100.00;99169.59;5025877;57;1136475;-79
2024/04/17 00:17:46;;;;;;;1.00;1.00;;;;;;;5.04;100.00;99164.48;5026686;57;1136835;-79
2024/04/17 00:22:52;;;;;;;1.47;1.20;;;;;;;5.07;100.00;99160.29;5045555;56;1136792;-78
2024/04/17 00:27:57;;;;;;;1.47;1.37;;;;;;;5.06;100.00;99159.92;5026258;56;1136546;-79
2024/04/17 00:33:03;;;;;;;2.07;1.57;;;;;;;5.04;100.00;99159.23;5026001;57;1136636;-78
2024/04/17 00:38:09;;;;;;;1.17;1.10;;;;;;;5.05;100.00;99160.41;5045649;57;1136641;-79
2024/04/17 00:43:14;;;;;;;1.00;1.00;;;;;;;5.07;100.00;99159.81;5026726;56;1136460;-79
2024/04/17 00:48:20;;;;;;;1.30;1.20;;;;;;;5.07;100.00;99155.88;5087316;55;1141225;-79
2024/04/17 00:53:32;;;;;;;1.23;1.13;;;;;;;5.05;100.00;99161.71;5045115;57;1136816;-79
2024/04/17 00:58:38;;;;;;;1.98;1.15;;;;;;;5.10;100.00;99162.68;5025970;57;1136370;-80
2024/04/17 01:03:43;;;;;;;1.07;1.07;;;;;;;5.13;100.00;99171.63;5060114;56;1136561;-79
2024/04/17 01:08:49;;;;;;;1.13;1.07;;;;;;;5.16;100.00;99172.23;5129624;56;1136466;-79
2024/04/17 01:13:56;;;;;;;2.77;1.27;;;;;;;5.22;100.00;99172.22;5109102;56;1136391;-78
2024/04/17 01:19:03;;;;;;;2.67;1.13;;;;;;;5.26;100.00;99175.80;5075655;56;1136271;-79
2024/04/17 01:24:08;;;;;;;3.63;1.40;;;;;;;5.25;100.00;99167.58;5045337;56;1136953;-79
2024/04/17 01:29:14;;;;;;;3.70;1.90;;;;;;;5.30;100.00;99169.38;5025646;57;1136635;-79
2024/04/17 01:34:19;;;;;;;1.73;1.63;;;;;;;5.31;100.00;99174.14;5026013;57;1136571;-79
2024/04/17 01:39:25;;;;;;;2.80;1.70;;;;;;;5.37;100.00;99171.50;5045464;57;1136554;-79
2024/04/17 01:44:30;;;;;;;2.00;1.93;;;;;;;5.35;100.00;99172.93;5026407;56;1136356;-79
2024/04/17 01:49:36;;;;;;;1.10;1.10;;;;;;;5.35;100.00;99175.55;5024326;57;1136408;-79
2024/04/17 01:54:42;;;;;;;1.73;1.63;;;;;;;5.38;100.00;99177.11;5042216;57;1136927;-79
2024/04/17 01:59:47;;;;;;;1.30;1.30;;;;;;;5.46;100.00;99186.06;5025386;57;1136644;-79
2024/04/17 02:04:53;;;;;;;3.90;1.95;;;;;;;5.53;100.00;99191.17;5025449;57;1136483;-79
2024/04/17 02:09:58;;;;;;;1.90;1.80;;;;;;;5.54;100.00;99200.70;5045438;57;1136615;-79
2024/04/17 02:15:06;;;;;;;3.05;2.37;;;;;;;5.57;100.00;99200.48;5026001;56;1136564;-79
2024/04/17 02:20:11;;;;;;;2.50;2.00;;;;;;;5.57;100.00;99206.20;5025759;57;1136795;-79
2024/04/17 02:25:17;;;;;;;2.67;2.12;;;;;;;5.57;100.00;99206.20;5025940;55;1136511;-79
2024/04/17 02:30:22;;;;;;;2.02;1.82;;;;;;;5.61;100.00;99216.34;5049119;55;1136514;-79
2024/04/17 02:35:28;;;;;;;1.70;1.60;;;;;;;5.65;100.00;99218.25;5045336;57;1136751;-79
2024/04/17 02:40:33;;;;;;;2.37;2.27;;;;;;;5.72;100.00;99223.36;5044857;56;1136403;-79
2024/04/17 02:45:40;;;;;;;7.90;2.73;;;;;;;5.73;100.00;99228.13;5106492;56;1134766;-79
2024/04/17 02:50:47;;;;;;;3.02;2.66;;;;;;;5.72;100.00;99227.30;5150134;56;1134521;-80
2024/04/17 02:55:52;;;;;;;2.95;2.75;;;;;;;5.72;100.00;99233.02;5113996;56;1136445;-79
2024/04/17 03:00:58;;;;;;;3.10;2.90;;;;;;;5.73;100.00;99234.69;5150142;56;1136523;-79
2024/04/17 03:06:04;;;;;;;1.87;1.77;;;;;;;5.73;100.00;99240.77;5129781;56;1136612;-80
2024/04/17 03:11:09;;;;;;;2.37;1.60;;;;;;;5.79;100.00;99256.52;5102659;56;1136914;-79
2024/04/17 03:16:15;;;;;;;3.83;2.53;;;;;;;5.69;100.00;99264.25;5045307;57;1136489;-79
2024/04/17 03:21:20;;;;;;;6.10;2.50;;;;;;;5.63;100.00;99281.80;5065756;57;1136483;-80
2024/04/17 03:26:26;;;;;;;3.60;1.60;;;;;;;5.54;100.00;99285.10;5045654;57;1136717;-79
2024/04/17 03:31:31;;;;;;;3.97;1.60;;;;;;;5.53;100.00;99295.23;5044002;57;1136677;-79
2024/04/17 03:36:37;;;;;;;2.97;1.33;;;;;;;5.53;100.00;99301.79;5016892;57;1136796;-79
2024/04/17 03:41:42;;;;;;;7.80;2.30;;;;;;;5.49;100.00;99310.39;4997155;57;1134670;-79
2024/04/17 03:46:48;;;;;;;3.60;1.30;;;;;;;5.48;100.00;99319.68;5039205;57;1143195;-80
2024/04/17 03:51:53;;;;;;;6.00;1.80;;;;;;;5.40;100.00;99324.65;5077072;56;1136488;-79
2024/04/17 03:56:59;;;;;;;2.70;1.40;;;;;;;5.40;100.00;99331.20;5011887;57;1136592;-79
2024/04/17 04:02:06;;;;;;;7.03;1.50;;;;;;;5.39;100.00;99338.70;5003802;56;1134698;-79
2024/04/17 04:07:12;;;;;;;5.30;1.87;;;;;;;5.36;100.00;99351.56;5061131;56;1134536;-82
2024/04/17 04:12:17;;;;;;;4.03;1.60;;;;;;;5.30;100.00;99365.15;5028961;57;1134629;-77
2024/04/17 04:17:23;;;;;;;3.23;1.30;;;;;;;5.26;100.00;99376.33;5043378;56;1136840;-77
2024/04/17 04:22:28;;;;;;;4.17;1.62;;;;;;;5.25;100.00;99387.77;5008925;56;1136538;-79
2024/04/17 04:27:34;;;;;;;2.33;1.50;;;;;;;5.28;100.00;99403.74;5034601;57;1136820;-80
2024/04/17 04:32:39;;;;;;;4.63;1.90;;;;;;;5.33;100.00;99404.73;5018457;56;1136414;-80
2024/04/17 04:37:45;;;;;;;4.50;2.10;;;;;;;5.35;100.00;99416.75;5129797;55;1134584;-79
2024/04/17 04:42:50;;;;;;;3.60;1.83;;;;;;;5.39;100.00;99426.06;5144010;55;1134531;-79
2024/04/17 04:47:56;;;;;;;2.62;2.08;;;;;;;5.37;100.00;99434.52;5142429;55;1134676;-78
2024/04/17 04:53:01;;;;;;;5.25;1.80;;;;;;;5.37;100.00;99434.98;5126567;55;1134588;-79
2024/04/17 04:58:07;;;;;;;6.65;1.37;;;;;;;5.36;100.00;99438.09;5155083;55;1136558;-82
2024/04/17 05:03:12;;;;;;;7.83;1.67;;;;;;;5.32;100.00;99445.00;5093332;55;1136566;-84
2024/04/17 05:08:19;;;;;;;5.33;2.00;;;;;;;5.36;100.00;99446.42;5130597;55;1136910;-79
2024/04/17 05:13:24;;;;;;;3.03;1.70;;;;;;;5.39;100.00;99456.22;5171230;55;1136547;-80
2024/04/17 05:18:30;;;;;;;4.60;3.00;;;;;;;5.44;100.00;99462.45;5133005;55;1134509;-79
2024/04/17 05:23:35;;;;;;;5.67;2.40;;;;;;;5.45;100.00;99474.61;5125064;55;1136605;-81
2024/04/17 05:28:41;;;;;;;3.67;1.90;;;;;;;5.48;100.00;99477.86;5140946;55;1136595;-80
2024/04/17 05:33:48;;;;;;;9.73;2.67;;;;;;;5.54;100.00;99481.80;5130562;55;1136541;-81
2024/04/17 05:38:54;;;;;;;8.13;2.93;;;;;;;5.65;100.00;99486.61;5106548;55;1136881;-81
2024/04/17 05:43:59;;;;;;;8.95;3.40;;;;;;;5.59;100.00;99488.86;5114994;56;1136514;-81
2024/04/17 05:49:06;;;;;;;5.50;2.60;;;;;;;5.59;100.00;99501.97;5072385;56;1134771;-81
2024/04/17 05:54:11;;;;;;;11.57;3.50;;;;;;;5.58;100.00;99495.05;5121662;56;1136294;-81
2024/04/17 05:59:17;;;;;;;10.80;3.72;;;;;;;5.52;100.00;99502.88;5093823;55;1138740;-82
2024/04/17 06:04:23;;;;;;;8.57;3.30;;;;;;;5.64;100.00;99504.63;5145096;56;1138603;-83
2024/04/17 06:09:28;;;;;;;11.00;5.03;;;;;;;5.78;100.00;99511.48;5111035;56;1136488;-81
2024/04/17 06:14:34;;;;;;;10.90;4.00;;;;;;;5.85;100.00;99511.84;5101023;56;1138646;-82
2024/04/17 06:19:39;;;;;;;9.23;4.03;;;;;;;5.86;100.00;99520.92;5126987;56;1138385;-84
2024/04/17 06:24:45;;;;;;;6.07;2.90;;;;;;;5.90;100.00;99530.75;5120156;55;1136676;-83
2024/04/17 06:29:51;;;;;;;7.97;2.70;;;;;;;5.91;100.00;99533.27;5113247;55;1136950;-83
2024/04/17 06:34:56;;;;;;;2.20;1.83;;;;;;;5.77;100.00;99533.89;5138890;56;1136953;-82
2024/04/17 06:40:02;;;;;;;5.00;1.90;;;;;;;5.70;100.00;99534.80;5111043;55;1136783;-80
2024/04/17 06:45:08;;;;;;;3.42;1.82;;;;;;;5.64;100.00;99534.80;5093423;56;1136488;-80
2024/04/17 06:50:13;;;;;;;3.83;1.80;;;;;;;5.67;100.00;99541.58;5094607;56;1136496;-85
2024/04/17 06:55:19;;;;;;;2.87;1.90;;;;;;;5.74;100.00;99541.98;5114593;56;1134337;-82
2024/04/17 07:00:32;;;;;;;5.97;2.10;;;;;;;5.83;100.00;99548.69;5115930;56;1136582;-83
2024/04/17 07:05:37;;;;;;;3.03;1.60;;;;;;;5.95;100.00;99551.78;5119443;55;1136548;-80
2024/04/17 07:10:43;;;;;;;5.13;1.80;;;;;;;5.99;100.00;99567.64;5129744;56;1136430;-82
2024/04/17 07:15:49;;;;;;;3.53;1.70;;;;;;;6.02;100.00;99566.58;5096244;55;1134148;-83
2024/04/17 07:20:54;;;;;;;6.70;1.77;;;;;;;6.05;100.00;99574.71;5107258;56;1134336;-82
2024/04/17 07:26:00;;;;;;;4.30;1.70;;;;;;;6.08;100.00;99580.58;5132707;56;1136374;-82
2024/04/17 07:31:06;;;;;;;3.40;1.67;;;;;;;6.19;100.00;99585.02;5117457;55;1138071;-85
2024/04/17 07:36:11;;;;;;;2.43;1.37;;;;;;;6.42;100.00;99578.03;5116114;56;1136677;-80
2024/04/17 07:41:17;;;;;;;1.80;1.13;;;;;;;6.53;100.00;99592.53;5140711;55;1136989;-83
2024/04/17 07:46:23;;;;;;;2.93;1.33;;;;;;;6.53;100.00;99588.59;5161222;55;1136848;-82
2024/04/17 07:51:29;;;;;;;9.00;3.40;;;;;;;6.54;100.00;99595.05;5135311;55;1136493;-80
2024/04/17 07:56:34;;;;;;;10.80;2.72;;;;;;;6.54;100.00;99603.41;5118008;55;1134580;-81
2024/04/17 08:01:40;;;;;;;6.87;3.00;;;;;;;6.51;100.00;99601.00;5112538;56;1139403;-79
2024/04/17 08:06:46;;;;;;;14.47;4.27;;;;;;;6.55;100.00;99609.86;5113732;55;1137012;-81
2024/04/17 08:11:54;;;;;;;13.88;5.03;;;;;;;6.46;100.00;99618.88;5090189;55;1138519;-83
2024/04/17 08:16:59;;;;;;;9.43;3.47;;;;;;;6.37;100.00;99625.67;5125242;55;1138706;-81
2024/04/17 08:22:05;;;;;;;7.75;2.62;;;;;;;6.43;100.00;99620.42;5101936;55;1136576;-82
2024/04/17 08:27:10;;;;;;;15.87;4.63;;;;;;;6.45;100.00;99631.66;5073717;55;1136683;-80
2024/04/17 08:32:17;;;;;;;15.43;4.13;;;;;;;6.49;100.00;99635.73;5093690;56;1136779;-82
2024/04/17 08:37:23;;;;;;;11.80;2.60;;;;;;;6.63;100.00;99638.16;5105486;56;1138746;-82
2024/04/17 08:42:34;;;;;;;5.78;2.30;;;;;;;6.87;100.00;99640.73;5090516;56;1138477;-81
2024/04/17 08:47:42;;;;;;;9.03;2.13;;;;;;;6.89;100.00;99646.21;5056155;55;1136561;-81
2024/04/17 08:52:49;;;;;;;4.43;2.00;;;;;;;6.93;100.00;99654.23;5088735;56;1134592;-83
2024/04/17 08:57:56;;;;;;;9.40;3.17;;;;;;;6.84;100.00;99659.36;5088420;56;1136673;-81
2024/04/17 09:03:01;;;;;;;6.37;1.83;;;;;;;6.88;100.00;99659.47;5046527;56;1136843;-80
2024/04/17 09:08:09;;;;;;;3.60;1.57;;;;;;;6.95;100.00;99665.95;5074864;55;1134384;-81
2024/04/17 09:13:16;;;;;;;17.43;3.90;;;;;;;7.00;100.00;99673.86;5058792;56;1136544;-83
2024/04/17 09:18:29;;;;;;;5.73;2.60;;;;;;;7.02;100.00;99677.20;5083070;56;1138906;-82
2024/04/17 09:23:35;;;;;;;9.10;2.40;;;;;;;7.06;100.00;99674.68;5066991;56;1134385;-80
2024/04/17 09:28:40;;;;;;;5.73;2.07;;;;;;;7.06;100.00;99690.45;5030728;56;1136902;-81
2024/04/17 09:33:47;;;;;;;2.70;1.90;;;;;;;7.21;100.00;99688.45;5055304;56;1136946;-84
2024/04/17 09:38:53;;;;;;;13.33;2.90;;;;;;;7.35;100.00;99684.75;5075961;56;1137218;-84
2024/04/17 09:43:59;;;;;;;5.45;2.10;;;;;;;7.43;100.00;99698.64;5083095;56;1136694;-82
2024/04/17 09:49:20;;;;;;;6.77;2.33;;;;;;;7.45;100.00;99696.73;5075545;56;1136616;-85
2024/04/17 09:54:27;;;;;;;9.28;1.75;;;;;;;7.48;100.00;99693.86;5069113;56;1136933;-84
2024/04/17 09:59:34;;;;;;;4.47;2.17;;;;;;;7.41;100.00;99698.27;5089590;56;1136369;-82
2024/04/17 10:04:41;;;;;;;7.83;2.03;;;;;;;7.25;100.00;99700.41;5052140;56;1134370;-82
2024/04/17 10:09:48;;;;;;;2.80;1.60;;;;;;;7.20;100.00;99702.55;5039191;56;1136548;-84
2024/04/17 10:14:57;;;;;;;5.00;2.45;;;;;;;7.12;100.00;99696.22;5097020;56;1136329;-85
2024/04/17 10:20:02;;;;;;;2.80;2.00;;;;;;;7.14;100.00;99706.14;5048038;55;1134498;-81
2024/04/17 10:25:10;;;;;;;1.83;1.10;;;;;;;7.25;100.00;99710.94;5054794;56;1134378;-81
2024/04/17 10:30:15;;;;;;;5.10;2.67;;;;;;;7.42;100.00;99713.58;5050097;55;1136789;-82
2024/04/17 10:35:27;;;;;;;2.10;1.63;;;;;;;7.55;100.00;99711.67;5063800;56;1134317;-81
2024/04/17 10:40:32;;;;;;;2.17;1.30;;;;;;;7.67;100.00;99715.97;5074570;56;1134217;-84
2024/04/17 10:45:43;;;;;;;2.15;1.22;;;;;;;8.06;100.00;99715.11;5075240;56;1136677;-85
2024/04/17 10:50:49;;;;;;;7.57;3.20;;;;;;;8.38;100.00;99709.43;5095577;55;1136691;-83
2024/04/17 10:55:56;;;;;;;3.97;2.47;;;;;;;8.58;100.00;99709.58;5014243;56;1136479;-83
2024/04/17 11:01:02;;;;;;;2.75;0.98;;;;;;;8.61;100.00;99713.28;5054522;56;1136860;-83
2024/04/17 11:06:10;;;;;;;7.00;6.13;;;;;;;8.65;100.00;99711.59;5063544;56;1134879;-82
2024/04/17 11:11:17;;;;;;;6.67;3.20;;;;;;;8.65;100.00;99707.64;5055173;55;1134710;-81
2024/04/17 11:16:22;;;;;;;0.90;0.90;;;;;;;8.71;100.00;99715.50;5080368;56;1134704;-81
2024/04/17 11:21:28;;;;;;;3.37;1.10;;;;;;;8.72;100.00;99706.16;5067742;56;1134483;-83
2024/04/17 11:26:34;;;;;;;2.95;1.45;;;;;;;9.03;100.00;99700.47;5040255;56;1134479;-83
2024/04/17 11:31:39;;;;;;;4.40;1.83;;;;;;;9.42;100.00;99707.31;5027927;56;1134474;-82
2024/04/17 11:36:45;;;;;;;5.57;5.03;;;;;;;9.42;100.00;99716.06;5096800;56;1134465;-83
2024/04/17 11:41:51;;;;;;;6.70;2.57;;;;;;;9.16;100.00;99716.97;5076945;56;1134547;-80
2024/04/17 11:46:58;;;;;;;3.67;1.07;;;;;;;9.48;100.00;99711.56;5052629;56;1134498;-82
2024/04/17 11:52:09;;;;;;;0.68;0.50;;;;;;;9.95;100.00;99701.31;5079313;56;1136699;-83
2024/04/17 11:57:14;;;;;;;1.30;0.68;;;;;;;10.04;100.00;99712.41;5068390;56;1136633;-83
2024/04/17 12:02:20;;;;;;;1.05;0.70;;;;;;;10.05;100.00;99706.64;5078096;56;1138695;-85
2024/04/17 12:07:26;;;;;;;1.60;1.30;;;;;;;10.27;100.00;99701.63;5073408;56;1138814;-81
2024/04/17 12:12:31;;;;;;;2.47;1.97;;;;;;;10.37;100.00;99705.97;5063563;55;1138708;-81
2024/04/17 12:17:37;;;;;;;2.27;1.20;;;;;;;10.46;100.00;99710.42;5076628;55;1138596;-79
2024/04/17 12:22:43;;;;;;;0.87;0.50;;;;;;;10.42;100.00;99711.66;5114622;56;1138668;-83
2024/04/17 12:27:48;;;;;;;6.60;1.20;;;;;;;10.39;100.00;99709.28;5066521;56;1138712;-81
2024/04/17 12:32:55;;;;;;;5.10;1.43;;;;;;;10.28;100.00;99701.97;5067439;56;1138428;-80
2024/04/17 12:38:01;;;;;;;16.00;5.73;;;;;;;10.46;100.00;99707.78;5105301;56;1138701;-81
2024/04/17 12:43:06;;;;;;;0.62;0.62;;;;;;;10.74;100.00;99710.07;5037231;56;1140360;-81
2024/04/17 12:48:13;;;;;;;5.37;1.70;;;;;;;11.02;100.00;99703.08;5081901;56;1138706;-81
2024/04/17 12:53:20;;;;;;;2.63;0.80;;;;;;;11.04;100.00;99701.13;5098933;56;1138780;-82
2024/04/17 12:58:26;;;;;;;1.93;0.67;;;;;;;11.06;100.00;99704.47;5061077;56;1138981;-82
2024/04/17 13:03:33;;;;;;;1.77;0.63;;;;;;;11.26;100.00;99703.95;5083099;55;1138638;-80
2024/04/17 13:08:39;;;;;;;2.17;1.10;;;;;;;11.02;100.00;99711.02;5058462;56;1138675;-82
2024/04/17 13:13:44;;;;;;;6.73;1.10;;;;;;;10.88;100.00;99707.00;5042905;56;1138687;-84
2024/04/17 13:18:50;;;;;;;3.00;1.30;;;;;;;10.91;100.00;99705.41;5099173;56;1139065;-84
2024/04/17 13:23:56;;;;;;;0.73;0.60;;;;;;;11.04;100.00;99702.45;5069565;56;1138843;-83
2024/04/17 13:29:01;;;;;;;0.72;0.72;;;;;;;10.86;100.00;99711.59;5037943;56;1138915;-80
2024/04/17 13:34:07;;;;;;;1.15;1.00;;;;;;;10.56;100.00;99709.92;5098860;56;1138871;-82
2024/04/17 13:39:12;;;;;;;3.15;1.77;;;;;;;10.38;100.00;99705.00;5052411;56;1138790;-83
2024/04/17 13:44:18;;;;;;;3.77;2.23;;;;;;;10.36;100.00;99704.78;5046908;55;1138654;-81
2024/04/17 13:49:23;;;;;;;4.37;2.42;;;;;;;10.34;100.00;99702.27;5051761;56;1138862;-81
2024/04/17 13:54:29;;;;;;;2.93;1.20;;;;;;;10.51;100.00;99712.66;5102445;56;1138691;-80
2024/04/17 13:59:35;;;;;;;2.53;1.40;;;;;;;10.74;100.00;99711.39;5085224;56;1138548;-82
2024/04/17 14:04:40;;;;;;;2.87;0.60;;;;;;;10.79;100.00;99710.50;5048555;56;1138897;-79
2024/04/17 14:09:46;;;;;;;1.60;0.87;;;;;;;10.72;100.00;99716.47;5070212;55;1138680;-84
2024/04/17 14:14:53;;;;;;;1.53;0.93;;;;;;;10.72;100.00;99717.30;5052278;56;1138509;-83
2024/04/17 14:19:59;;;;;;;3.78;1.46;;;;;;;11.01;100.00;99711.99;5050313;55;1138625;-87
2024/04/17 14:25:06;;;;;;;2.52;1.47;;;;;;;11.17;100.00;99725.97;5043767;56;1139010;-79
2024/04/17 14:30:13;;;;;;;4.95;3.00;;;;;;;11.48;100.00;99722.62;5025307;56;1138732;-80
2024/04/17 14:35:19;;;;;;;3.60;2.50;;;;;;;11.69;100.00;99729.88;5022620;57;1138889;-84
2024/04/17 14:40:24;;;;;;;8.03;1.92;;;;;;;11.51;100.00;99720.52;5107805;55;1138674;-79
2024/04/17 14:45:30;;;;;;;1.52;1.12;;;;;;;11.40;100.00;99729.97;5128581;55;1138592;-81
2024/04/17 14:50:35;;;;;;;9.47;3.17;;;;;;;11.08;100.00;99736.92;5072951;56;1138768;-80
2024/04/17 14:55:41;;;;;;;4.63;2.03;;;;;;;10.86;100.00;99744.66;5031369;56;1138703;-83
2024/04/17 15:00:49;;;;;;;17.57;7.30;;;;;;;10.74;100.00;99755.52;5096493;56;1138680;-83
2024/04/17 15:05:58;;;;;;;11.97;5.00;;;;;;;10.52;100.00;99764.56;5062224;56;1140619;-81
2024/04/17 15:11:07;;;;;;;8.67;3.47;;;;;;;10.26;100.00;99777.42;5044401;56;1140440;-79
2024/04/17 15:16:14;;;;;;;5.03;2.27;;;;;;;10.11;100.00;99778.25;5064983;57;1138445;-78
2024/04/17 15:21:21;;;;;;;8.63;3.00;;;;;;;10.21;100.00;99780.98;5045456;55;1138573;-83
2024/04/17 15:26:27;;;;;;;3.67;1.52;;;;;;;10.23;100.00;99784.33;5044589;57;1138839;-79
2024/04/17 15:31:32;;;;;;;2.97;2.47;;;;;;;10.30;100.00;99782.80;5064297;57;1138569;-80
2024/04/17 15:36:38;;;;;;;4.80;2.33;;;;;;;10.47;100.00;99787.92;5128522;55;1138524;-80
2024/04/17 15:41:43;;;;;;;4.87;1.67;;;;;;;10.51;100.00;99786.69;5128351;55;1138776;-84
2024/04/17 15:46:50;;;;;;;1.33;1.23;;;;;;;10.42;100.00;99780.87;5116868;55;1138973;-81
2024/04/17 15:51:57;;;;;;;3.80;2.07;;;;;;;10.48;100.00;99783.83;5119819;56;1138831;-83
2024/04/17 15:57:03;;;;;;;5.27;2.80;;;;;;;10.58;100.00;99781.19;5128818;56;1138664;-82
2024/04/17 16:02:09;;;;;;;2.97;2.50;;;;;;;10.57;100.00;99785.63;5149574;56;1138903;-80
2024/04/17 16:07:14;;;;;;;7.08;6.03;;;;;;;10.68;100.00;99783.38;5098220;56;1138443;-81
2024/04/17 16:12:20;;;;;;;2.50;1.55;;;;;;;10.80;100.00;99786.72;5069706;55;1138554;-79
2024/04/17 16:17:25;;;;;;;1.67;1.40;;;;;;;10.79;100.00;99776.62;5069636;55;1139002;-80
2024/04/17 16:22:31;;;;;;;6.50;3.00;;;;;;;10.74;100.00;99774.03;5128966;56;1138516;-79
2024/04/17 16:27:36;;;;;;;3.87;3.03;;;;;;;10.85;100.00;99777.86;5106125;56;1138972;-83
2024/04/17 16:32:42;;;;;;;3.70;2.60;;;;;;;10.91;100.00;99784.77;5145651;56;1138517;-80
2024/04/17 16:37:47;;;;;;;1.87;1.63;;;;;;;10.98;100.00;99785.55;5129585;56;1138910;-80
2024/04/17 16:42:56;;;;;;;2.70;1.47;;;;;;;10.79;100.00;99797.78;5130069;56;1138424;-78
2024/04/17 16:48:00;;;;;;;4.43;2.77;;;;;;;10.45;100.00;99806.56;5134206;56;1138748;-78
2024/04/17 16:53:06;;;;;;;14.77;8.40;;;;;;;10.27;100.00;99813.45;5129480;56;1138558;-79
2024/04/17 16:58:11;;;;;;;21.00;8.50;;;;;;;10.29;100.00;99823.90;5125654;56;1141178;-79
2024/04/17 17:03:18;;;;;;;14.65;7.53;;;;;;;10.24;100.00;99825.61;5041351;56;1140849;-79
2024/04/17 17:08:24;;;;;;;20.47;9.87;;;;;;;10.19;100.00;99833.96;5047730;56;1140973;-79
2024/04/17 17:13:29;;;;;;;17.90;9.03;;;;;;;10.20;100.00;99845.37;5052661;55;1140872;-78
2024/04/17 17:18:36;;;;;;;21.47;8.67;;;;;;;10.12;100.00;99845.98;5025305;56;1140847;-78
2024/04/17 17:23:42;;;;;;;20.45;8.00;;;;;;;10.07;100.00;99851.33;5044741;56;1140672;-79
2024/04/17 17:28:48;;;;;;;20.40;8.37;;;;;;;10.01;100.00;99848.72;5025221;57;1140737;-79
2024/04/17 17:33:54;;;;;;;3.50;1.90;;;;;;;9.98;100.00;99856.06;5024967;57;1140752;-78
2024/04/17 17:38:59;;;;;;;10.10;1.97;;;;;;;9.87;100.00;99863.11;5045314;56;1136721;-79
2024/04/17 17:44:05;;;;;;;8.03;5.03;;;;;;;9.77;100.00;99864.03;5095285;56;1138776;-80
2024/04/17 17:49:14;;;;;;;6.35;3.37;;;;;;;9.68;100.00;99868.27;5109234;55;1134732;-80
2024/04/17 17:54:18;;;;;;;4.53;2.67;;;;;;;9.61;100.00;99866.29;5108515;55;1134616;-81
2024/04/17 17:59:23;;;;;;;6.57;3.63;;;;;;;9.50;100.00;99875.09;5117246;56;1134516;-81
2024/04/17 18:04:29;;;;;;;48.63;32.47;;;;;;;9.45;100.00;99875.48;5114594;56;1134311;-81
2024/04/17 18:09:34;;;;;;;19.63;11.33;;;;;;;9.40;100.00;99888.22;5126685;56;1138803;-85
2024/04/17 18:14:40;;;;;;;11.13;4.73;;;;;;;9.32;100.00;99899.88;5063203;57;1140464;-83
2024/04/17 18:19:58;;;;;;;9.93;5.93;;;;;;;9.32;100.00;99899.88;5118225;56;1138837;-80
2024/04/17 18:24:57;;;;;;;16.03;9.20;;;;;;;9.27;100.00;99909.15;5125936;56;1136606;-83
2024/04/17 18:30:03;;;;;;;38.03;13.50;;;;;;;9.21;100.00;99908.31;5148139;56;1214671;-86
2024/04/17 18:35:08;;;;;;;9.75;4.95;;;;;;;9.13;100.00;99903.20;5123471;56;1140621;-81
2024/04/17 18:40:14;;;;;;;6.97;4.53;;;;;;;8.97;100.00;99910.68;5109129;56;1136532;-80
2024/04/17 18:45:20;;;;;;;12.80;5.03;;;;;;;8.86;100.00;99912.52;5129679;55;1136411;-80
2024/04/17 18:50:25;;;;;;;8.63;4.87;;;;;;;8.72;100.00;99914.42;5145776;56;1136951;-81
2024/04/17 18:55:31;;;;;;;6.40;3.30;;;;;;;8.62;100.00;99927.98;5129846;56;1134527;-82
2024/04/17 19:00:42;;;;;;;17.80;7.50;;;;;;;8.56;100.00;99932.41;5129193;56;1134251;-78
2024/04/17 19:05:57;;;;;;;28.80;12.60;;;;;;;8.46;100.00;99942.00;5148553;56;1136378;-84
2024/04/17 19:11:05;;;;;;;26.82;14.18;;;;;;;8.34;100.00;99939.84;5093204;56;1138731;-82
2024/04/17 19:16:22;;;;;;;80.60;24.43;;;;;;;8.36;100.00;99950.27;5106847;56;1140874;-79
2024/04/17 19:21:23;;;;;;;18.92;9.38;;;;;;;8.38;100.00;99953.63;5125192;56;1140753;-82
2024/04/17 19:26:29;;;;;;;17.07;6.20;;;;;;;8.25;100.00;99954.19;5149385;56;1138656;-81
2024/04/17 19:31:34;;;;;;;6.80;3.93;;;;;;;8.07;100.00;99961.22;5067194;56;1138519;-83
2024/04/17 19:36:40;;;;;;;5.73;3.77;;;;;;;7.85;100.00;99958.52;5044341;56;1134276;-80
2024/04/17 19:41:45;;;;;;;7.23;4.10;;;;;;;7.74;100.00;99961.13;5071185;55;1134909;-80
2024/04/17 19:46:51;;;;;;;13.10;5.03;;;;;;;7.66;100.00;99955.10;5129732;55;1134776;-80
2024/04/17 19:51:56;;;;;;;11.83;5.50;;;;;;;7.64;100.00;99966.22;5128585;55;1138666;-82
2024/04/17 19:57:02;;;;;;;19.97;9.17;;;;;;;7.77;100.00;99970.12;5149186;55;1138707;-84
2024/04/17 20:02:07;;;;;;;53.70;22.87;;;;;;;7.93;100.00;99965.38;5129331;55;1138545;-79
2024/04/17 20:07:13;;;;;;;30.57;14.83;;;;;;;8.08;100.00;99967.33;5067059;56;1140665;-80
2024/04/17 20:12:18;;;;;;;20.00;9.57;;;;;;;7.89;100.00;99976.25;5026260;57;1139030;-79
2024/04/17 20:17:24;;;;;;;12.23;7.22;;;;;;;7.63;100.00;99982.15;5046070;57;1158537;-78
2024/04/17 20:22:30;;;;;;;25.63;9.53;;;;;;;7.43;100.00;99985.39;5025690;57;1138696;-79
2024/04/17 20:27:35;;;;;;;54.07;16.20;;;;;;;7.39;100.00;99986.09;5025606;57;1138894;-80
2024/04/17 20:32:41;;;;;;;35.73;12.70;;;;;;;7.47;100.00;99982.91;5045277;56;1140921;-79
2024/04/17 20:37:46;;;;;;;44.63;15.67;;;;;;;7.53;100.00;99976.70;5042865;56;1140850;-78
2024/04/17 20:42:52;;;;;;;39.80;14.17;;;;;;;7.59;100.00;99978.05;5109178;56;1141043;-79
2024/04/17 20:47:58;;;;;;;30.13;13.07;;;;;;;7.67;100.00;99981.78;5129345;55;1138730;-79
2024/04/17 20:53:04;;;;;;;15.13;6.60;;;;;;;7.57;100.00;99986.53;5108753;55;1138628;-79
2024/04/17 20:58:10;;;;;;;12.80;6.37;;;;;;;7.33;100.00;99988.67;5072617;56;1136664;-79
2024/04/17 21:03:16;;;;;;;44.04;15.98;;;;;;;7.27;100.00;99986.98;5076726;56;1138937;-79
2024/04/17 21:08:22;;;;;;;47.38;17.30;;;;;;;7.42;100.00;99999.02;5077607;56;1140726;-79
2024/04/17 21:13:28;;;;;;;21.77;9.73;;;;;;;7.44;100.00;100002.39;5078708;56;1140863;-78
2024/04/17 21:18:36;;;;;;;11.68;7.00;;;;;;;7.44;100.00;100000.23;5086398;56;1140681;-78
2024/04/17 21:23:43;;;;;;;11.87;6.63;;;;;;;7.31;100.00;100009.02;5093889;56;1140994;-78
2024/04/17 21:28:49;;;;;;;16.63;8.77;;;;;;;7.17;100.00;100013.12;5079479;56;1138798;-79
2024/04/17 21:33:54;;;;;;;15.97;8.00;;;;;;;7.06;100.00;100018.28;5095431;56;1138503;-79
2024/04/17 21:39:00;;;;;;;14.73;6.80;;;;;;;6.97;100.00;100015.00;5092695;56;1138681;-79
2024/04/17 21:44:05;;;;;;;14.47;8.77;;;;;;;6.97;100.00;100021.09;5060297;56;1140438;-79
2024/04/17 21:49:11;;;;;;;23.07;9.27;;;;;;;7.08;100.00;100026.91;5129736;55;1140766;-79
2024/04/17 21:54:16;;;;;;;20.63;7.17;;;;;;;7.21;100.00;100032.12;5128687;55;1150095;-79
2024/04/17 21:59:22;;;;;;;17.48;7.33;;;;;;;7.21;100.00;100036.06;5068259;56;1140788;-79
2024/04/17 22:04:27;;;;;;;10.07;5.30;;;;;;;7.13;100.00;100037.10;5044784;57;1140524;-78
2024/04/17 22:09:33;;;;;;;11.78;6.75;;;;;;;7.13;100.00;100037.10;5035350;57;1138790;-80
2024/04/17 22:14:38;;;;;;;14.63;7.70;;;;;;;7.16;100.00;100043.47;5015910;57;1138820;-79
2024/04/17 22:19:45;;;;;;;10.37;6.83;;;;;;;7.08;100.00;100042.67;4996158;56;1138811;-79
2024/04/17 22:24:51;;;;;;;17.30;7.70;;;;;;;7.01;100.00;100041.45;4996341;57;1138792;-79
2024/04/17 22:29:57;;;;;;;10.90;5.90;;;;;;;6.91;100.00;100044.34;5048686;57;1138533;-78
2024/04/17 22:35:04;;;;;;;10.10;5.63;;;;;;;6.89;100.00;100051.02;5079307;56;1138459;-78
2024/04/17 22:40:09;;;;;;;12.63;5.77;;;;;;;6.90;100.00;100058.42;5078817;56;1140872;-78
2024/04/17 22:45:15;;;;;;;9.83;5.77;;;;;;;6.78;100.00;100059.28;5064175;57;1140738;-79
2024/04/17 22:50:20;;;;;;;8.35;5.65;;;;;;;6.83;100.00;100055.40;4995700;58;1138676;-78
2024/04/17 22:55:26;;;;;;;9.40;5.58;;;;;;;6.88;100.00;100062.94;4996286;57;1136622;-78
2024/04/17 23:00:31;;;;;;;34.60;19.97;;;;;;;6.89;100.00;100059.37;5015934;57;1136638;-78
2024/04/17 23:05:37;;;;;;;46.57;24.47;;;;;;;6.91;100.00;100060.95;4996041;57;1140717;-79
2024/04/17 23:10:43;;;;;;;27.27;14.73;;;;;;;6.90;100.00;100061.89;4995894;57;1140637;-79
2024/04/17 23:15:48;;;;;;;20.30;11.20;;;;;;;6.85;100.00;100064.02;5015507;57;1140635;-79